Irwinville, GA (31760)

6:39 AM EDT on October 02, 2014 (GMT -0400)
Fitzgerald Municipal | Change Station
CLOSE
Current Station
Airport
Location: Fitzgerald Muni, Fitzgerald,,
Elevation: 364 ft
Nearby Weather Stations

Elev 364 ft 31.68 °N, 83.27 °W | Updated 24 minutes ago

Mostly Cloudy
Mostly Cloudy
67 °F
Feels Like 67 °F
N
0
Wind Variable Wind from North

Today
High -- | Low -- °F
--% Chance of Precip.
Yesterday
High -- | Low -- °F
Precip. -- in
7:28 AM 7:17 PM
First Quarter, 57% visible
Pressure 30.07 in
Visibility 2.5 miles
Clouds Mostly Cloudy 6500 ft
Dew Point 64 °F
Humidity 91%
Rainfall 0.00 in
Snow Depth Not available.
UV 0 out of 12
Pollen 6.10 out of 12
Air Quality Not available.
Flu Activity Not available.
METAR KFZG 021015Z AUTO 00000KT 2 1/2SM BR BKN065 19/18 A3007 RMK AO2 T01920177

More Conditions Fewer Conditions

Pressure 30.07 in
Visibility 2.5 miles
Clouds Mostly Cloudy 6500 ft
Dew Point 64 °F
Humidity 91%
Rainfall 0.00 in
Snow Depth Not available.
UV 0 out of 12
Pollen 6.10 out of 12
Air Quality Not available.
Flu Activity Not available.
METAR KFZG 021015Z AUTO 00000KT 2 1/2SM BR BKN065 19/18 A3007 RMK AO2 T01920177

More Conditions Fewer Conditions

10-Day Weather Forecast

Almanac

Astronomy

Oct. 02, 2014 Rise Set
Actual Time 7:28 AM EDT 7:17 PM EDT
Civil Twilight 7:03 AM EDT 7:41 PM EDT
Nautical Twilight 6:35 AM EDT 8:09 PM EDT
Astronomical Twilight 6:07 AM EDT 8:38 PM EDT
Moon 3:03 PM EDT 1:04 AM EDT
Length of Visible Light 12h 37m
Length of Day
11h 49m
Tomorrow will be 1m 54s shorter.
First Quarter, 57% of the Moon is Illuminated
Today
First Quarter
Oct 8
Full
Oct 15
Last Quarter
Oct 23
New
Oct 30
First Quarter

Today's Extremes

State Highs State Lows

Community

WunderPhotos

Upload Photos

1,758,210 photos uploaded!

WunderBlogs® & News

Nearby

Snow Depth

Station Depth Elevation
No new snow has been reported.

Earthquake Activity

City Distance Mag. Time & Date
No recent earthquake activity has been reported nearby.
Minimum magnitude displayed is 2.5.

Coastal Water Temperatures

Place Temperature
No Stations Reporting

Nearby Weather Stations